Terminal Aerodrome Forecast
Issued by NWS Atlanta, GA

Home | Current Version | Previous Version | Text Only | Print | Product List | Glossary On
Versions: 1 2 3 4 5 6 7 8 9 10 11 12 13 14 15 16 17 18 19 20 21 22 23 24 25 26 27 28 29 30 31 32 33 34 35 36 37 38 39 40 41 42 43 44 45
000
FTUS42 KFFC 260234 AAC
TAFAHN
TAF AMD
KAHN 260234Z 2603/2624 00000KT P6SM SCT009 BKN035
      TEMPO 2603/2606 3SM -SHRA BR BKN009
     FM260600 00000KT 5SM BR OVC025
     FM260900 00000KT 3SM BR OVC012
     FM261500 00000KT P6SM VCSH BKN012
     FM261800 18004KT P6SM BKN035 PROB30 2618/2624 VRB10G20KT 3SM
      TSRA BR BKN025CB=

USA.gov is the U.S. government's official web portal to all federal, state and local government web resources and services.